Wetterstation Vordersexau
Wetterdaten: Woche 28.11.16 - 04.12.16 (KW48)
Datum Zeit Temp. A. Feuchte A. Luftdruck Regen Wind Richtung Taupunkt Windchill Windben
28.11.2016 00:00 4,5 C 81 % 1015,9 hPa 0,0 l/m 0,0 km/h N-NO 1,5 C 4,5 C 0,0 km/h
28.11.2016 01:00 3,3 C 82 % 1015,7 hPa 0,0 l/m 0,0 km/h N-NO 0,5 C 3,3 C 0,0 km/h
28.11.2016 02:00 3,8 C 83 % 1016,0 hPa 0,0 l/m 0,0 km/h N-NO 1,2 C 3,8 C 0,0 km/h
28.11.2016 03:00 3,5 C 80 % 1016,3 hPa 0,0 l/m 0,0 km/h N 0,4 C 3,5 C 0,0 km/h
28.11.2016 04:00 3,1 C 81 % 1016,4 hPa 0,0 l/m 0,0 km/h N-NW 0,2 C 3,1 C 0,0 km/h
28.11.2016 05:00 2,3 C 81 % 1016,8 hPa 0,0 l/m 0,0 km/h N-NO -0,6 C 2,3 C 0,0 km/h
28.11.2016 06:00 1,8 C 81 % 1017,4 hPa 0,0 l/m 3,2 km/h O-SO -1,1 C 1,8 C 1,8 km/h
28.11.2016 07:00 0,7 C 82 % 1017,8 hPa 0,0 l/m 0,0 km/h O-NO -2,0 C 0,7 C 0,0 km/h
28.11.2016 08:00 -0,7 C 83 % 1018,7 hPa 0,0 l/m 0,0 km/h O-NO -3,2 C -0,7 C 0,0 km/h
28.11.2016 09:00 4,8 C 80 % 1018,9 hPa 0,0 l/m 0,0 km/h S-SO 1,6 C 4,8 C 0,0 km/h
28.11.2016 10:00 9,4 C 66 % 1019,0 hPa 0,0 l/m 0,0 km/h NO 3,4 C 9,4 C 0,0 km/h
28.11.2016 11:00 11,8 C 52 % 1019,2 hPa 0,0 l/m 0,0 km/h NO 2,3 C 11,8 C 0,0 km/h
28.11.2016 12:00 10,8 C 46 % 1019,4 hPa 0,0 l/m 1,3 km/h NO -0,3 C 10,8 C 0,7 km/h
28.11.2016 13:00 10,3 C 46 % 1019,5 hPa 0,0 l/m 0,0 km/h N-NO -0,8 C 10,3 C 0,0 km/h
28.11.2016 14:00 10,1 C 45 % 1019,7 hPa 0,0 l/m 0,0 km/h O-SO -1,3 C 10,1 C 0,0 km/h
28.11.2016 15:00 10,8 C 41 % 1020,2 hPa 0,0 l/m 0,0 km/h NO -1,9 C 10,8 C 0,0 km/h
28.11.2016 16:00 8,6 C 45 % 1020,8 hPa 0,0 l/m 0,0 km/h NO -2,6 C 8,6 C 0,0 km/h
28.11.2016 17:00 2,2 C 60 % 1021,5 hPa 0,0 l/m 0,0 km/h O-NO -4,7 C 2,2 C 0,0 km/h
28.11.2016 18:00 1,2 C 64 % 1022,0 hPa 0,0 l/m 0,0 km/h O -4,8 C 1,2 C 0,0 km/h
28.11.2016 19:00 1,5 C 63 % 1022,5 hPa 0,0 l/m 5,2 km/h NW -4,8 C 1,5 C 2,9 km/h
28.11.2016 20:00 0,8 C 64 % 1022,6 hPa 0,0 l/m 0,0 km/h N-NO -5,2 C 0,8 C 0,0 km/h
28.11.2016 21:00 0,5 C 65 % 1023,3 hPa 0,0 l/m 0,0 km/h O-SO -5,3 C 0,5 C 0,0 km/h
28.11.2016 22:00 -0,2 C 67 % 1023,8 hPa 0,0 l/m 0,0 km/h N -5,6 C -0,2 C 0,0 km/h
28.11.2016 23:00 0,1 C 65 % 1024,2 hPa 0,0 l/m 0,0 km/h N-NO -5,7 C 0,1 C 0,0 km/h
29.11.2016 00:00 -0,7 C 66 % 1024,0 hPa 0,0 l/m 0,0 km/h N-NO -6,2 C -0,7 C 0,0 km/h
29.11.2016 01:00 -2,2 C 69 % 1023,7 hPa 0,0 l/m 0,0 km/h O-SO -7,1 C -2,2 C 0,0 km/h
29.11.2016 02:00 -2,7 C 71 % 1024,1 hPa 0,0 l/m 0,0 km/h S-SO -7,2 C -2,7 C 0,0 km/h
29.11.2016 03:00 -3,9 C 76 % 1024,4 hPa 0,0 l/m 0,0 km/h SO -7,5 C -3,9 C 0,0 km/h
29.11.2016 04:00 -4,2 C 77 % 1024,7 hPa 0,0 l/m 0,0 km/h SO -7,6 C -4,2 C 0,0 km/h
29.11.2016 05:00 -5,4 C 78 % 1025,2 hPa 0,0 l/m 0,0 km/h SO -8,6 C -5,4 C 0,0 km/h
29.11.2016 06:00 -5,2 C 80 % 1025,3 hPa 0,0 l/m 0,0 km/h SO -8,1 C -5,2 C 0,0 km/h
29.11.2016 07:00 -6,2 C 82 % 1026,0 hPa 0,0 l/m 0,0 km/h SO -8,8 C -6,2 C 0,0 km/h
29.11.2016 08:00 -6,4 C 82 % 1026,4 hPa 0,0 l/m 0,0 km/h SO -9,0 C -6,4 C 0,0 km/h
29.11.2016 09:00 0,4 C 83 % 1027,3 hPa 0,0 l/m 0,0 km/h W-SW -2,1 C 0,4 C 0,0 km/h
29.11.2016 10:00 4,2 C 65 % 1027,7 hPa 0,0 l/m 0,0 km/h W-SW -1,8 C 4,2 C 0,0 km/h
29.11.2016 11:00 6,5 C 59 % 1028,0 hPa 0,0 l/m 0,0 km/h W -0,9 C 6,5 C 0,0 km/h
29.11.2016 12:00 7,3 C 54 % 1027,9 hPa 0,0 l/m 0,0 km/h S -1,4 C 7,3 C 0,0 km/h
29.11.2016 13:00 6,9 C 54 % 1027,7 hPa 0,0 l/m 0,0 km/h SW -1,8 C 6,9 C 0,0 km/h
29.11.2016 14:00 7,6 C 51 % 1027,4 hPa 0,0 l/m 0,0 km/h S -1,9 C 7,6 C 0,0 km/h
29.11.2016 15:00 10,2 C 45 % 1027,6 hPa 0,0 l/m 0,0 km/h W -1,2 C 10,2 C 0,0 km/h
29.11.2016 16:00 7,4 C 48 % 1027,7 hPa 0,0 l/m 0,0 km/h W-NW -2,9 C 7,4 C 0,0 km/h
29.11.2016 17:00 -0,4 C 65 % 1028,4 hPa 0,0 l/m 0,0 km/h W-NW -6,2 C -0,4 C 0,0 km/h
29.11.2016 18:00 -2,4 C 74 % 1028,9 hPa 0,0 l/m 0,0 km/h W-NW -6,4 C -2,4 C 0,0 km/h
29.11.2016 19:00 -3,1 C 77 % 1028,9 hPa 0,0 l/m 0,0 km/h W-NW -6,5 C -3,1 C 0,0 km/h
29.11.2016 20:00 -3,9 C 79 % 1029,2 hPa 0,0 l/m 0,0 km/h W-NW -7,0 C -3,9 C 0,0 km/h
29.11.2016 21:00 -4,4 C 81 % 1029,5 hPa 0,0 l/m 0,0 km/h W-NW -7,2 C -4,4 C 0,0 km/h
29.11.2016 22:00 -4,7 C 83 % 1029,8 hPa 0,0 l/m 0,0 km/h W-NW -7,1 C -4,7 C 0,0 km/h
29.11.2016 23:00 -4,9 C 84 % 1030,0 hPa 0,0 l/m 0,0 km/h O-SO -7,2 C -4,9 C 0,0 km/h
30.11.2016 00:00 -4,7 C 85 % 1030,3 hPa 0,0 l/m 0,0 km/h O-SO -6,8 C -4,7 C 0,0 km/h
30.11.2016 01:00 -4,9 C 85 % 1030,3 hPa 0,0 l/m 0,0 km/h O-SO -7,0 C -4,9 C 0,0 km/h
30.11.2016 02:00 -5,4 C 85 % 1030,2 hPa 0,0 l/m 0,0 km/h O -7,5 C -5,4 C 0,0 km/h
30.11.2016 03:00 -5,7 C 85 % 1030,0 hPa 0,0 l/m 0,0 km/h O -7,8 C -5,7 C 0,0 km/h
30.11.2016 04:00 -6,2 C 86 % 1030,4 hPa 0,0 l/m 0,0 km/h O-SO -8,1 C -6,2 C 0,0 km/h
30.11.2016 05:00 -6,1 C 86 % 1031,1 hPa 0,0 l/m 0,0 km/h O-SO -8,0 C -6,1 C 0,0 km/h
30.11.2016 06:00 -5,5 C 86 % 1030,1 hPa 0,0 l/m 0,0 km/h O -7,5 C -5,5 C 0,0 km/h
30.11.2016 07:00 -6,1 C 86 % 1031,4 hPa 0,0 l/m 0,0 km/h O -8,0 C -6,1 C 0,0 km/h
30.11.2016 08:00 -6,4 C 86 % 1032,0 hPa 0,0 l/m 0,0 km/h SO -8,3 C -6,4 C 0,0 km/h
30.11.2016 09:00 -0,6 C 86 % 1031,5 hPa 0,0 l/m 0,0 km/h SO -2,6 C -0,6 C 0,0 km/h
30.11.2016 10:00 5,3 C 68 % 1031,8 hPa 0,0 l/m 1,9 km/h SO -0,1 C 5,3 C 1,1 km/h
30.11.2016 11:00 8,9 C 56 % 1031,7 hPa 0,0 l/m 0,0 km/h N 0,6 C 8,9 C 0,0 km/h
30.11.2016 12:00 9,8 C 52 % 1031,3 hPa 0,0 l/m 0,0 km/h NW 0,4 C 9,8 C 0,0 km/h
30.11.2016 13:00 8,9 C 51 % 1031,1 hPa 0,0 l/m 0,0 km/h W-NW -0,7 C 8,9 C 0,0 km/h
30.11.2016 14:00 10,2 C 51 % 1030,2 hPa 0,0 l/m 0,0 km/h N-NW 0,5 C 10,2 C 0,0 km/h
30.11.2016 15:00 11,8 C 47 % 1029,7 hPa 0,0 l/m 0,0 km/h NO 0,9 C 11,8 C 0,0 km/h
30.11.2016 16:00 8,1 C 53 % 1029,6 hPa 0,0 l/m 0,0 km/h O-SO -0,9 C 8,1 C 0,0 km/h
30.11.2016 17:00 0,6 C 69 % 1029,4 hPa 0,0 l/m 0,0 km/h O-NO -4,4 C 0,6 C 0,0 km/h
30.11.2016 18:00 -1,0 C 76 % 1029,4 hPa 0,0 l/m 0,0 km/h O-NO -4,7 C -1,0 C 0,0 km/h
30.11.2016 19:00 -1,4 C 80 % 1029,9 hPa 0,0 l/m 0,0 km/h O-NO -4,4 C -1,4 C 0,0 km/h
30.11.2016 20:00 -1,9 C 83 % 1029,7 hPa 0,0 l/m 0,0 km/h O-SO -4,4 C -1,9 C 0,0 km/h
30.11.2016 21:00 -1,6 C 85 % 1029,8 hPa 0,0 l/m 0,0 km/h O-SO -3,8 C -1,6 C 0,0 km/h
30.11.2016 22:00 -1,9 C 85 % 1029,6 hPa 0,0 l/m 0,0 km/h O-SO -4,1 C -1,9 C 0,0 km/h
30.11.2016 23:00 -2,1 C 86 % 1029,7 hPa 0,0 l/m 0,0 km/h O-SO -4,1 C -2,1 C 0,0 km/h
01.12.2016 00:00 -1,9 C 86 % 1029,4 hPa 0,0 l/m 0,0 km/h O-SO -3,9 C -1,9 C 0,0 km/h
01.12.2016 01:00 -2,1 C 86 % 1028,8 hPa 0,0 l/m 0,0 km/h O-SO -4,1 C -2,1 C 0,0 km/h
01.12.2016 02:00 -2,2 C 86 % 1029,0 hPa 0,0 l/m 0,0 km/h O-SO -4,2 C -2,2 C 0,0 km/h
01.12.2016 03:00 -2,6 C 86 % 1029,1 hPa 0,0 l/m 0,0 km/h O-SO -4,6 C -2,6 C 0,0 km/h
01.12.2016 04:00 -2,7 C 86 % 1029,1 hPa 0,0 l/m 0,0 km/h O-SO -4,7 C -2,7 C 0,0 km/h
01.12.2016 05:00 -3,0 C 86 % 1028,7 hPa 0,0 l/m 0,0 km/h O-SO -5,0 C -3,0 C 0,0 km/h
01.12.2016 06:00 -3,5 C 86 % 1028,5 hPa 0,0 l/m 0,0 km/h O-SO -5,5 C -3,5 C 0,0 km/h
01.12.2016 07:00 -3,9 C 86 % 1028,1 hPa 0,0 l/m 0,0 km/h O-SO -5,9 C -3,9 C 0,0 km/h
01.12.2016 08:00 -4,3 C 86 % 1027,8 hPa 0,0 l/m 0,0 km/h O-SO -6,3 C -4,3 C 0,0 km/h
01.12.2016 09:00 -1,6 C 85 % 1027,7 hPa 0,0 l/m 0,0 km/h O-SO -3,8 C -1,6 C 0,0 km/h
01.12.2016 10:00 0,1 C 85 % 1027,3 hPa 0,0 l/m 0,0 km/h O-NO -2,1 C 0,1 C 0,0 km/h
01.12.2016 11:00 7,9 C 79 % 1027,1 hPa 0,0 l/m 0,0 km/h W 4,5 C 7,9 C 0,0 km/h
01.12.2016 12:00 8,4 C 68 % 1026,2 hPa 0,0 l/m 0,0 km/h W 2,8 C 8,4 C 0,0 km/h
01.12.2016 13:00 10,3 C 61 % 1025,5 hPa 0,0 l/m 0,0 km/h N-NW 3,1 C 10,3 C 0,0 km/h
01.12.2016 14:00 11,5 C 56 % 1024,5 hPa 0,0 l/m 0,0 km/h N 3,0 C 11,5 C 0,0 km/h
01.12.2016 15:00 13,9 C 51 % 1024,3 hPa 0,0 l/m 0,0 km/h N 3,9 C 13,9 C 0,0 km/h
01.12.2016 16:00 10,5 C 54 % 1024,0 hPa 0,0 l/m 0,0 km/h N 1,6 C 10,5 C 0,0 km/h
01.12.2016 17:00 1,8 C 69 % 1024,0 hPa 0,0 l/m 0,0 km/h N -3,3 C 1,8 C 0,0 km/h
01.12.2016 18:00 -0,6 C 78 % 1023,6 hPa 0,0 l/m 0,0 km/h N -3,9 C -0,6 C 0,0 km/h
01.12.2016 19:00 -1,4 C 80 % 1023,3 hPa 0,0 l/m 0,0 km/h N -4,4 C -1,4 C 0,0 km/h
01.12.2016 20:00 -1,7 C 83 % 1023,3 hPa 0,0 l/m 0,0 km/h N -4,2 C -1,7 C 0,0 km/h
01.12.2016 21:00 -2,5 C 84 % 1023,4 hPa 0,0 l/m 0,0 km/h N -4,8 C -2,5 C 0,0 km/h
01.12.2016 22:00 -2,8 C 85 % 1023,4 hPa 0,0 l/m 0,0 km/h N -5,0 C -2,8 C 0,0 km/h
01.12.2016 23:00 -2,9 C 86 % 1023,1 hPa 0,0 l/m 0,0 km/h N -4,9 C -2,9 C 0,0 km/h
02.12.2016 00:00 -3,1 C 86 % 1023,0 hPa 0,0 l/m 0,0 km/h N -5,1 C -3,1 C 0,0 km/h
02.12.2016 01:00 -3,2 C 86 % 1022,6 hPa 0,0 l/m 0,0 km/h O-NO -5,2 C -3,2 C 0,0 km/h
02.12.2016 02:00 -3,2 C 86 % 1022,1 hPa 0,0 l/m 0,0 km/h O-SO -5,2 C -3,2 C 0,0 km/h
02.12.2016 03:00 -4,1 C 86 % 1021,7 hPa 0,0 l/m 0,0 km/h O-SO -6,1 C -4,1 C 0,0 km/h
02.12.2016 04:00 -4,2 C 86 % 1021,5 hPa 0,0 l/m 0,0 km/h O-SO -6,2 C -4,2 C 0,0 km/h
02.12.2016 05:00 -4,4 C 86 % 1021,4 hPa 0,0 l/m 0,0 km/h O -6,4 C -4,4 C 0,0 km/h
02.12.2016 06:00 -3,0 C 86 % 1021,4 hPa 0,0 l/m 0,0 km/h O -5,0 C -3,0 C 0,0 km/h
02.12.2016 07:00 -1,6 C 86 % 1021,4 hPa 0,0 l/m 0,0 km/h O -3,6 C -1,6 C 0,0 km/h
02.12.2016 08:00 -1,6 C 86 % 1021,8 hPa 0,0 l/m 0,0 km/h O -3,6 C -1,6 C 0,0 km/h
02.12.2016 09:00 -0,9 C 86 % 1021,8 hPa 0,0 l/m 0,0 km/h O -2,9 C -0,9 C 0,0 km/h
02.12.2016 10:00 2,1 C 85 % 1021,8 hPa 0,0 l/m 0,0 km/h O -0,2 C 2,1 C 0,0 km/h
02.12.2016 11:00 8,7 C 72 % 1021,5 hPa 0,0 l/m 0,0 km/h W 3,9 C 8,7 C 0,0 km/h
02.12.2016 12:00 8,3 C 65 % 1020,8 hPa 0,0 l/m 0,0 km/h W 2,1 C 8,3 C 0,0 km/h
02.12.2016 13:00 10,8 C 60 % 1019,9 hPa 0,0 l/m 0,0 km/h W-NW 3,4 C 10,8 C 0,0 km/h
02.12.2016 14:00 6,4 C 67 % 1019,3 hPa 0,0 l/m 0,0 km/h W-NW 0,7 C 6,4 C 0,0 km/h
02.12.2016 15:00 5,6 C 72 % 1018,9 hPa 0,0 l/m 0,0 km/h W-NW 1,0 C 5,6 C 0,0 km/h
02.12.2016 16:00 5,1 C 74 % 1018,9 hPa 0,0 l/m 0,0 km/h W-NW 0,9 C 5,1 C 0,0 km/h
02.12.2016 17:00 4,1 C 76 % 1018,7 hPa 0,0 l/m 0,0 km/h W-NW 0,3 C 4,1 C 0,0 km/h
02.12.2016 18:00 0,9 C 79 % 1018,9 hPa 0,0 l/m 0,0 km/h W-NW -2,3 C 0,9 C 0,0 km/h
02.12.2016 19:00 1,5 C 82 % 1018,8 hPa 0,0 l/m 0,0 km/h NW -1,2 C 1,5 C 0,0 km/h
02.12.2016 20:00 0,4 C 84 % 1019,0 hPa 0,0 l/m 0,0 km/h NW -2,0 C 0,4 C 0,0 km/h
02.12.2016 21:00 -0,1 C 85 % 1018,6 hPa 0,0 l/m 0,0 km/h NW -2,3 C -0,1 C 0,0 km/h
02.12.2016 22:00 -0,7 C 86 % 1018,1 hPa 0,0 l/m 0,0 km/h NW -2,7 C -0,7 C 0,0 km/h
02.12.2016 23:00 -1,1 C 86 % 1017,9 hPa 0,0 l/m 0,0 km/h NW -3,1 C -1,1 C 0,0 km/h
03.12.2016 00:00 -1,2 C 86 % 1018,0 hPa 0,0 l/m 0,0 km/h NW -3,2 C -1,2 C 0,0 km/h
03.12.2016 01:00 0,1 C 86 % 1017,6 hPa 0,0 l/m 0,0 km/h NW -2,0 C 0,1 C 0,0 km/h
03.12.2016 02:00 0,5 C 86 % 1017,5 hPa 0,0 l/m 0,0 km/h NW -1,6 C 0,5 C 0,0 km/h
03.12.2016 03:00 0,8 C 86 % 1017,4 hPa 0,0 l/m 0,0 km/h SO -1,3 C 0,8 C 0,0 km/h
03.12.2016 04:00 0,7 C 85 % 1017,4 hPa 0,0 l/m 0,0 km/h SO -1,5 C 0,7 C 0,0 km/h
03.12.2016 05:00 -0,2 C 85 % 1017,1 hPa 0,0 l/m 0,0 km/h SO -2,4 C -0,2 C 0,0 km/h
03.12.2016 06:00 0,2 C 85 % 1017,4 hPa 0,0 l/m 0,0 km/h SO -2,0 C 0,2 C 0,0 km/h
03.12.2016 07:00 0,4 C 85 % 1017,4 hPa 0,0 l/m 0,0 km/h SO -1,8 C 0,4 C 0,0 km/h
03.12.2016 08:00 0,6 C 85 % 1017,9 hPa 0,0 l/m 0,0 km/h SO -1,6 C 0,6 C 0,0 km/h
03.12.2016 09:00 0,3 C 84 % 1018,3 hPa 0,0 l/m 0,0 km/h N -2,1 C 0,3 C 0,0 km/h
03.12.2016 10:00 1,5 C 83 % 1018,6 hPa 0,0 l/m 0,0 km/h W-NW -1,1 C 1,5 C 0,0 km/h
03.12.2016 11:00 3,1 C 83 % 1018,5 hPa 0,0 l/m 0,0 km/h W-SW 0,5 C 3,1 C 0,0 km/h
03.12.2016 12:00 8,8 C 81 % 1018,1 hPa 0,0 l/m 0,0 km/h W 5,7 C 8,8 C 0,0 km/h
03.12.2016 13:00 9,3 C 72 % 1017,6 hPa 0,0 l/m 1,9 km/h S-SO 4,5 C 9,3 C 1,1 km/h
03.12.2016 14:00 9,6 C 69 % 1017,3 hPa 0,0 l/m 0,0 km/h S-SO 4,2 C 9,6 C 0,0 km/h
03.12.2016 15:00 11,3 C 63 % 1017,4 hPa 0,0 l/m 0,0 km/h S-SO 4,5 C 11,3 C 0,0 km/h
03.12.2016 16:00 10,7 C 61 % 1017,8 hPa 0,0 l/m 0,0 km/h S-SO 3,5 C 10,7 C 0,0 km/h
03.12.2016 17:00 1,1 C 77 % 1018,3 hPa 0,0 l/m 0,0 km/h S-SO -2,5 C 1,1 C 0,0 km/h
03.12.2016 18:00 -0,9 C 81 % 1018,6 hPa 0,0 l/m 0,0 km/h S-SO -3,7 C -0,9 C 0,0 km/h
03.12.2016 19:00 -1,6 C 84 % 1019,2 hPa 0,0 l/m 0,0 km/h S-SO -3,9 C -1,6 C 0,0 km/h
03.12.2016 20:00 -2,6 C 84 % 1019,7 hPa 0,0 l/m 0,0 km/h S-SO -4,9 C -2,6 C 0,0 km/h
03.12.2016 21:00 -2,8 C 85 % 1019,8 hPa 0,0 l/m 0,0 km/h S-SO -5,0 C -2,8 C 0,0 km/h
03.12.2016 22:00 -3,4 C 86 % 1020,3 hPa 0,0 l/m 0,0 km/h S-SO -5,4 C -3,4 C 0,0 km/h
03.12.2016 23:00 -3,7 C 86 % 1020,3 hPa 0,0 l/m 0,0 km/h S-SO -5,7 C -3,7 C 0,0 km/h
04.12.2016 00:00 -4,2 C 86 % 1020,8 hPa 0,0 l/m 0,0 km/h SO -6,2 C -4,2 C 0,0 km/h
04.12.2016 01:00 -4,6 C 86 % 1020,9 hPa 0,0 l/m 0,0 km/h SO -6,6 C -4,6 C 0,0 km/h
04.12.2016 02:00 -5,4 C 86 % 1021,1 hPa 0,0 l/m 0,0 km/h SO -7,4 C -5,4 C 0,0 km/h
04.12.2016 03:00 -5,8 C 86 % 1021,4 hPa 0,0 l/m 0,0 km/h SO -7,8 C -5,8 C 0,0 km/h
04.12.2016 04:00 -5,5 C 86 % 1021,5 hPa 0,0 l/m 0,0 km/h SO -7,5 C -5,5 C 0,0 km/h
04.12.2016 05:00 -5,6 C 86 % 1021,6 hPa 0,0 l/m 0,0 km/h SO -7,6 C -5,6 C 0,0 km/h
04.12.2016 06:00 -6,1 C 87 % 1021,7 hPa 0,0 l/m 0,0 km/h SO -7,9 C -6,1 C 0,0 km/h
04.12.2016 07:00 -6,4 C 87 % 1021,8 hPa 0,0 l/m 0,0 km/h SO -8,2 C -6,4 C 0,0 km/h
04.12.2016 08:00 -6,4 C 87 % 1022,2 hPa 0,0 l/m 0,0 km/h SO -8,2 C -6,4 C 0,0 km/h
04.12.2016 09:00 -1,4 C 84 % 1022,7 hPa 0,0 l/m 0,0 km/h W -3,7 C -1,4 C 0,0 km/h
04.12.2016 10:00 3,5 C 83 % 1023,0 hPa 0,0 l/m 0,0 km/h W-NW 0,9 C 3,5 C 0,0 km/h
04.12.2016 11:00 5,1 C 73 % 1023,1 hPa 0,0 l/m 0,0 km/h W-SW 0,7 C 5,1 C 0,0 km/h
04.12.2016 12:00 5,6 C 71 % 1022,7 hPa 0,0 l/m 0,0 km/h W-NW 0,8 C 5,6 C 0,0 km/h
04.12.2016 13:00 5,6 C 69 % 1022,3 hPa 0,0 l/m 0,0 km/h W-NW 0,4 C 5,6 C 0,0 km/h
04.12.2016 14:00 6,2 C 66 % 1022,2 hPa 0,0 l/m 0,0 km/h N-NW 0,3 C 6,2 C 0,0 km/h
04.12.2016 15:00 7,6 C 60 % 1021,9 hPa 0,0 l/m 0,0 km/h N-NW 0,3 C 7,6 C 0,0 km/h
04.12.2016 16:00 4,7 C 65 % 1022,2 hPa 0,0 l/m 0,0 km/h N-NW -1,3 C 4,7 C 0,0 km/h
04.12.2016 17:00 -1,4 C 74 % 1022,6 hPa 0,0 l/m 0,0 km/h N-NW -5,4 C -1,4 C 0,0 km/h
04.12.2016 18:00 -2,6 C 78 % 1022,8 hPa 0,0 l/m 0,0 km/h N-NW -5,9 C -2,6 C 0,0 km/h
04.12.2016 19:00 -3,1 C 81 % 1023,0 hPa 0,0 l/m 0,0 km/h N-NW -5,9 C -3,1 C 0,0 km/h
04.12.2016 20:00 -3,3 C 83 % 1023,4 hPa 0,0 l/m 0,0 km/h N-NW -5,8 C -3,3 C 0,0 km/h
04.12.2016 21:00 -3,9 C 84 % 1023,7 hPa 0,0 l/m 0,0 km/h N-NW -6,2 C -3,9 C 0,0 km/h
04.12.2016 22:00 -4,0 C 85 % 1023,6 hPa 0,0 l/m 0,0 km/h N-NW -6,1 C -4,0 C 0,0 km/h
04.12.2016 23:00 -4,2 C 85 % 1023,8 hPa 0,0 l/m 0,0 km/h N-NW -6,3 C -4,2 C 0,0 km/h
Min-Datum _ 29.11.16 28.11.16 28.11.16 - 28.11.16 - 29.11.16 29.11.16 28.11.16
_ Min-Zeit 08:10 15:10 01:10 - 00:10 - 08:10 08:10 00:10
Minimum _ -6,4 C 41 % 1015,7 hPa - 0,0 km/h - -9,0 C -6,4 C 0,0 km/h
Max-Datum _ 01.12.16 04.12.16 30.11.16 28.11.16 28.11.16 - 03.12.16 01.12.16 28.11.16
_ Max-Zeit 15:10 06:10 08:10 00:10 19:10 - 12:10 15:10 19:10
Maximum _ 13,9 C 87 % 1032,0 hPa 0,0 l/m 5,2 km/h
NW
- 5,7 C 13,9 C 2,9 km/h
NW
Durchschnitt _ 0,9 C 76 % 1023,5 hPa #0,0 l/m 0,1 km/h O-SO -3,1 C 0,9 C 0,0 km/h
www.sexauwetter.de